Richvale, Pennsylvania
Current Conditions -  °F | °C
As of 7:53 AM on Tuesday 21 Oct 2014 (Local Time) from KAOO Reporting Station
Overcast Overcast  
Wind Chill: 47°   Ceiling: 1800
Heat Index: 49°   Visibility: 10mi
Dew Point: 47°   Wind: 5mph
Humidity: 93%   Direction: 230°SW
Pressure: 29.86"   Gusts: NA
Location:  40.2561°N, 77.7747°W
Report Text: KAOO 211153Z AUTO 23004KT 10SM OVC018 09/08 A2986 RMK AO2 SLP114 60000 T00940083 10106 20083 53004
Loading
Personal Weather Stations






























Interactive Weather Map
Tropical Storm Tracking
New forecast layout! Learn more

10-Day Weather Forecast

Advertisements
Track Severe Weather on mobile